LiveATC.Net - Listen to live air traffic control over the Internet!


ICAO: KMWC  IATA: MWC   Airport: Lawrence J Timmerman Airport
City: Milwaukee   State/Province: Wisconsin
Country: United States   Continent: North America
KMWC METAR Weather: KMWC 210045Z 00000KT 10SM SKC 13/M11 A2982
KMWC Flight Activity (FlightAware)
KMWC Airport Info   (iFlightPlanner)
KMWC VFR Sectional Chart   (iFlightPlanner) 
KMWC IFR Low Chart   (iFlightPlanner) 

KMWC Gnd/Twr/App
Feed Status: UP   Listeners: 0
Listen in your browser - HTML5 player (in browser, HTML5)
Click here to listen with your own player (launches your MP3 player)
KMWC Gnd/Twr/App Audio Archives
FacilityFrequency
Milwaukee Approach125.350
Timmerman Ground121.700
Timmerman Tower120.500

NOTICE

Unauthorized use prohibited. See LiveATC.net Terms of Service


Find LiveATC Audio Streams


Airport/ARTCC Code

Frequency Search
(e.g., 124.400, 128.75)
Site-wide search
 


Browse LiveATC Feeds
Top 50 LiveATC Feeds
LiveATC Feed Map
Bad Weather Areas

LiveATC FAQ
Offer LiveATC feed
Contact LiveATC.net
Press Inquiries

LiveATC on iPhone
LiveATC on Android

Windows Phone
Windows 8/10

LiveATC Mobile
(Mobile browser)

ATC Audio Archives
Interesting Recordings

LiveATC Forums


Home Page
About LiveATC.net
Make a Donation
Terms of Use
Privacy Policy

Canadian Air Freqs

AIRMETs/SIGMETs

FAA Airport Status
Nat'l Airspace Status
Arrival Demand Charts


Server Software By:
Icecast.org
Liquidsoap